Time;durP1;ratioP1;P1;durP2;ratioP2;P2;SDS_P1;SDS_P2;PMS_P1;PMS_P2;Temp;Humidity;BMP_temperature;BMP_pressure;BME280_temperature;BME280_humidity;BME280_pressure;Samples;Min_cycle;Max_cycle;Signal;HPM_P1;HPM_P2
2022/03/08 00:01:59;;;;;;;13.30;10.30;;;1.30;99.90;;;;;;5138976;27;20043;-73
2022/03/08 00:04:27;;;;;;;11.75;10.07;;;1.30;99.90;;;;;;5146994;27;20046;-73
2022/03/08 00:06:53;;;;;;;12.57;10.27;;;1.30;99.90;;;;;;5143212;27;20117;-72
2022/03/08 00:09:19;;;;;;;13.93;10.88;;;1.30;99.90;;;;;;5147066;27;20076;-72
2022/03/08 00:11:45;;;;;;;13.07;9.95;;;1.30;99.90;;;;;;5152834;27;20491;-72
2022/03/08 00:14:11;;;;;;;12.57;10.65;;;1.20;99.90;;;;;;5143924;27;20064;-72
2022/03/08 00:16:36;;;;;;;11.52;10.18;;;1.20;99.90;;;;;;5140901;27;20072;-72
2022/03/08 00:19:03;;;;;;;11.13;10.02;;;1.20;99.90;;;;;;5133930;27;20053;-72
2022/03/08 00:21:28;;;;;;;13.20;10.52;;;1.20;99.90;;;;;;5121383;27;20043;-71
2022/03/08 00:23:55;;;;;;;12.10;10.50;;;1.20;99.90;;;;;;5144364;27;20042;-72
2022/03/08 00:26:23;;;;;;;12.52;10.23;;;1.20;99.90;;;;;;5145732;27;20514;-72
2022/03/08 00:28:48;;;;;;;12.18;10.23;;;1.20;99.90;;;;;;5142852;27;20041;-72
2022/03/08 00:31:14;;;;;;;12.43;10.55;;;1.10;99.90;;;;;;5119972;27;20035;-72
2022/03/08 00:33:41;;;;;;;13.23;10.48;;;1.10;99.90;;;;;;5143886;27;20047;-72
2022/03/08 00:36:07;;;;;;;12.00;10.30;;;1.00;99.90;;;;;;5144546;27;20050;-73
2022/03/08 00:38:33;;;;;;;12.88;10.57;;;1.00;99.90;;;;;;5140450;27;20070;-72
2022/03/08 00:40:58;;;;;;;14.40;11.30;;;0.90;99.90;;;;;;5141261;27;20047;-72
2022/03/08 00:43:24;;;;;;;12.75;10.60;;;0.90;99.90;;;;;;5139413;27;20055;-72
2022/03/08 00:45:50;;;;;;;11.98;10.45;;;0.80;99.90;;;;;;5143511;27;20102;-72
2022/03/08 00:48:16;;;;;;;13.57;10.90;;;0.80;99.90;;;;;;5142837;27;20525;-72
2022/03/08 00:50:42;;;;;;;12.20;10.70;;;0.80;99.90;;;;;;5146561;27;20512;-73
2022/03/08 00:53:08;;;;;;;12.75;10.70;;;0.80;99.90;;;;;;5134286;27;20043;-72
2022/03/08 00:55:34;;;;;;;15.98;11.40;;;0.80;99.90;;;;;;5122420;27;20383;-72
2022/03/08 00:58:01;;;;;;;13.13;11.45;;;0.80;99.90;;;;;;5134000;27;20119;-72
2022/03/08 01:00:28;;;;;;;15.30;12.13;;;0.80;99.90;;;;;;5144145;27;20093;-72
2022/03/08 01:02:54;;;;;;;15.20;11.38;;;0.80;99.90;;;;;;5151493;27;20046;-72
2022/03/08 01:05:20;;;;;;;13.98;11.45;;;0.70;99.90;;;;;;5139881;27;20369;-72
2022/03/08 01:07:46;;;;;;;13.88;11.70;;;0.70;99.90;;;;;;5141753;27;20035;-72
2022/03/08 01:10:16;;;;;;;14.68;11.93;;;0.70;99.90;;;;;;5141055;27;20039;-72
2022/03/08 01:12:43;;;;;;;13.52;11.98;;;0.70;99.90;;;;;;5148991;27;20049;-72
2022/03/08 01:15:09;;;;;;;13.68;11.73;;;0.70;99.90;;;;;;5146455;27;20106;-72
2022/03/08 01:17:36;;;;;;;12.77;11.40;;;0.70;99.90;;;;;;5140556;27;20047;-72
2022/03/08 01:20:02;;;;;;;14.73;11.77;;;0.70;99.90;;;;;;5133789;27;20050;-72
2022/03/08 01:22:28;;;;;;;14.57;12.27;;;0.70;99.90;;;;;;5144312;27;20491;-72
2022/03/08 01:24:53;;;;;;;15.15;12.73;;;0.70;99.90;;;;;;5144111;27;20092;-73
2022/03/08 01:27:19;;;;;;;16.20;11.93;;;0.60;99.90;;;;;;5131828;27;20411;-72
2022/03/08 01:29:45;;;;;;;14.15;12.65;;;0.70;99.90;;;;;;5142690;27;20039;-72
2022/03/08 01:32:10;;;;;;;15.68;12.88;;;0.70;99.90;;;;;;5140046;27;20034;-73
2022/03/08 01:34:36;;;;;;;14.60;12.38;;;0.70;99.90;;;;;;5139114;27;20498;-72
2022/03/08 01:37:03;;;;;;;16.13;13.25;;;0.70;99.90;;;;;;5143031;27;20039;-70
2022/03/08 01:39:29;;;;;;;15.07;13.18;;;0.80;99.90;;;;;;5137032;27;20406;-72
2022/03/08 01:41:55;;;;;;;14.95;13.35;;;0.80;99.90;;;;;;5142614;27;20043;-72
2022/03/08 01:44:21;;;;;;;14.95;12.75;;;0.70;99.90;;;;;;5150194;27;20042;-72
2022/03/08 01:46:47;;;;;;;16.00;13.10;;;0.70;99.90;;;;;;5149414;27;20035;-72
2022/03/08 01:49:12;;;;;;;17.45;14.10;;;0.70;99.90;;;;;;5142732;27;20047;-72
2022/03/08 01:51:39;;;;;;;16.45;13.63;;;0.70;99.90;;;;;;5149460;27;20509;-72
2022/03/08 01:54:06;;;;;;;16.30;13.73;;;0.70;99.90;;;;;;5137700;27;20047;-72
2022/03/08 01:56:33;;;;;;;16.10;13.23;;;0.70;99.90;;;;;;5138999;27;20072;-72
2022/03/08 01:59:00;;;;;;;16.35;14.45;;;0.70;99.90;;;;;;5140276;27;20066;-72
2022/03/08 02:01:25;;;;;;;15.70;13.80;;;0.70;99.90;;;;;;5139379;27;20442;-72
2022/03/08 02:03:52;;;;;;;17.20;14.30;;;0.70;99.90;;;;;;5145060;27;20049;-72
2022/03/08 02:06:17;;;;;;;17.50;14.57;;;0.70;99.90;;;;;;5144231;27;20095;-73
2022/03/08 02:08:44;;;;;;;17.85;14.27;;;0.60;99.90;;;;;;5137866;27;20035;-72
2022/03/08 02:11:10;;;;;;;16.10;13.75;;;0.60;99.90;;;;;;5137288;27;20103;-72
2022/03/08 02:13:38;;;;;;;17.25;14.18;;;0.60;99.90;;;;;;5136915;27;20403;-72
2022/03/08 02:16:05;;;;;;;18.50;14.70;;;0.50;99.90;;;;;;5137420;27;20051;-72
2022/03/08 02:18:31;;;;;;;17.45;14.43;;;0.50;99.90;;;;;;5143685;27;20041;-73
2022/03/08 02:21:03;;;;;;;17.90;15.20;;;0.50;99.90;;;;;;5152947;27;20050;-72
2022/03/08 02:23:29;;;;;;;17.60;14.73;;;0.50;99.90;;;;;;5156316;27;20077;-72
2022/03/08 02:25:55;;;;;;;17.13;14.73;;;0.50;99.90;;;;;;5154388;27;20142;-72
2022/03/08 02:28:21;;;;;;;18.45;15.20;;;0.60;99.90;;;;;;5147663;27;20035;-72
2022/03/08 02:30:47;;;;;;;17.33;14.95;;;0.60;99.90;;;;;;5136724;27;20080;-72
2022/03/08 02:33:13;;;;;;;17.25;15.38;;;0.60;99.90;;;;;;5152113;27;20042;-72
2022/03/08 02:35:39;;;;;;;19.05;15.48;;;0.60;99.90;;;;;;5148002;27;20035;-72
2022/03/08 02:38:06;;;;;;;18.20;15.18;;;0.60;99.90;;;;;;5147466;27;20050;-72
2022/03/08 02:40:37;;;;;;;17.50;14.95;;;0.60;99.90;;;;;;5147211;27;20050;-72
2022/03/08 02:43:05;;;;;;;18.55;16.35;;;0.60;99.90;;;;;;5136890;27;20446;-72
2022/03/08 02:45:31;;;;;;;19.20;16.23;;;0.50;99.90;;;;;;5137155;27;20051;-73
2022/03/08 02:47:57;;;;;;;18.52;15.23;;;0.50;99.90;;;;;;5153960;27;20131;-72
2022/03/08 02:50:23;;;;;;;19.60;15.43;;;0.40;99.90;;;;;;5142342;27;20088;-73
2022/03/08 02:52:51;;;;;;;18.42;14.95;;;0.40;99.90;;;;;;5145510;27;20045;-72
2022/03/08 02:55:19;;;;;;;19.65;15.40;;;0.40;99.90;;;;;;5156897;27;20078;-72
2022/03/08 02:57:45;;;;;;;19.02;15.90;;;0.30;99.90;;;;;;5146555;27;20039;-72
2022/03/08 03:00:12;;;;;;;19.58;15.98;;;0.30;99.90;;;;;;5136365;27;20050;-72
2022/03/08 03:02:38;;;;;;;18.08;16.10;;;0.30;99.90;;;;;;5143600;27;20047;-72
2022/03/08 03:05:05;;;;;;;18.60;16.48;;;0.30;99.90;;;;;;5145008;27;20176;-72
2022/03/08 03:07:31;;;;;;;18.55;15.77;;;0.30;99.90;;;;;;5135391;27;20078;-73
2022/03/08 03:09:57;;;;;;;18.08;16.15;;;0.20;99.90;;;;;;5135897;27;20455;-72
2022/03/08 03:12:23;;;;;;;19.33;16.23;;;0.10;99.90;;;;;;5139485;27;20095;-73
2022/03/08 03:14:48;;;;;;;20.60;16.73;;;0.20;99.90;;;;;;5135383;27;20399;-72
2022/03/08 03:17:14;;;;;;;20.33;17.42;;;0.10;99.90;;;;;;5137985;27;20043;-72
2022/03/08 03:19:40;;;;;;;20.50;17.13;;;0.00;99.90;;;;;;5155603;27;20183;-72
2022/03/08 03:22:06;;;;;;;19.65;16.83;;;0.10;99.90;;;;;;5152883;27;20050;-72
2022/03/08 03:24:31;;;;;;;19.58;17.10;;;0.00;99.90;;;;;;5149709;27;20110;-72
2022/03/08 03:26:57;;;;;;;20.92;17.95;;;0.00;99.90;;;;;;5136052;27;20480;-73
2022/03/08 03:29:23;;;;;;;19.83;17.35;;;0.00;99.90;;;;;;5142729;27;20043;-72
2022/03/08 03:31:48;;;;;;;22.65;18.75;;;0.00;99.90;;;;;;5154271;27;20035;-73
2022/03/08 03:34:14;;;;;;;22.30;18.67;;;0.00;99.90;;;;;;5135792;27;20548;-72
2022/03/08 03:36:40;;;;;;;20.83;18.20;;;0.00;99.90;;;;;;5154477;27;20049;-72
2022/03/08 03:39:07;;;;;;;21.00;18.58;;;0.10;99.90;;;;;;5156392;27;20426;-72
2022/03/08 03:41:33;;;;;;;20.45;17.98;;;0.00;99.90;;;;;;5141265;27;20039;-72
2022/03/08 03:43:59;;;;;;;21.42;18.52;;;0.00;99.90;;;;;;5155293;27;20041;-72
2022/03/08 03:46:24;;;;;;;21.75;18.35;;;0.00;99.90;;;;;;5154363;27;20479;-73
2022/03/08 03:48:50;;;;;;;23.45;19.50;;;0.00;99.90;;;;;;5152353;27;20062;-72
2022/03/08 03:51:19;;;;;;;23.45;19.45;;;0.00;99.90;;;;;;5155098;27;20455;-72
2022/03/08 03:53:46;;;;;;;21.42;18.35;;;0.00;99.90;;;;;;5151832;27;20042;-72
2022/03/08 03:56:12;;;;;;;22.52;19.15;;;0.00;99.90;;;;;;5144650;27;20038;-72
2022/03/08 03:58:38;;;;;;;22.10;18.97;;;0.00;99.90;;;;;;5134579;27;20046;-72
2022/03/08 04:01:04;;;;;;;22.55;19.13;;;0.00;99.90;;;;;;5146744;27;20035;-72
2022/03/08 04:03:31;;;;;;;23.10;20.23;;;0.00;99.90;;;;;;5152626;27;20053;-72
2022/03/08 04:05:57;;;;;;;21.17;18.88;;;0.00;99.90;;;;;;5155629;27;20069;-72
2022/03/08 04:08:22;;;;;;;22.45;19.23;;;0.00;99.90;;;;;;5152776;27;20526;-72
2022/03/08 04:10:52;;;;;;;22.35;19.05;;;0.00;99.90;;;;;;5140750;27;20042;-72
2022/03/08 04:13:18;;;;;;;22.35;19.52;;;0.00;99.90;;;;;;5152220;27;20060;-72
2022/03/08 04:15:45;;;;;;;22.58;19.92;;;0.00;99.90;;;;;;5136018;27;20039;-72
2022/03/08 04:18:11;;;;;;;23.40;19.67;;;0.00;99.90;;;;;;5136462;27;20035;-73
2022/03/08 04:20:37;;;;;;;23.40;19.67;;;0.00;99.90;;;;;;5134543;27;20039;-72
2022/03/08 04:23:03;;;;;;;23.02;20.10;;;0.00;99.90;;;;;;5142180;27;20046;-72
2022/03/08 04:25:28;;;;;;;23.70;19.97;;;-0.10;99.90;;;;;;5151890;27;20483;-72
2022/03/08 04:27:54;;;;;;;24.17;20.13;;;-0.10;99.90;;;;;;5137583;27;20031;-72
2022/03/08 04:30:20;;;;;;;24.17;21.05;;;-0.10;99.90;;;;;;5136443;27;20039;-72
2022/03/08 04:32:46;;;;;;;22.93;20.53;;;-0.10;99.90;;;;;;5147648;27;20074;-72
2022/03/08 04:35:12;;;;;;;23.65;20.00;;;-0.10;99.90;;;;;;5137550;27;20074;-72
2022/03/08 04:37:38;;;;;;;23.67;20.10;;;-0.10;99.90;;;;;;5133350;27;20071;-73
2022/03/08 04:40:05;;;;;;;22.37;19.97;;;-0.20;99.90;;;;;;5136331;27;20104;-72
2022/03/08 04:42:31;;;;;;;22.77;19.67;;;-0.20;99.90;;;;;;5145580;27;20046;-72
2022/03/08 04:44:57;;;;;;;22.37;20.00;;;-0.20;99.90;;;;;;5134519;27;20371;-72
2022/03/08 04:47:22;;;;;;;22.43;20.03;;;-0.20;99.90;;;;;;5143480;27;20039;-72
2022/03/08 04:49:49;;;;;;;22.33;19.95;;;-0.20;99.90;;;;;;5153417;27;20057;-72
2022/03/08 04:52:15;;;;;;;23.60;20.70;;;-0.20;99.90;;;;;;5154013;27;20046;-72
2022/03/08 04:54:41;;;;;;;24.50;21.10;;;-0.30;99.90;;;;;;5154319;27;20042;-72
2022/03/08 04:57:06;;;;;;;24.40;20.50;;;-0.30;99.90;;;;;;5136359;27;20476;-72
2022/03/08 04:59:32;;;;;;;23.43;20.90;;;-0.30;99.90;;;;;;5147585;27;20039;-72
2022/03/08 05:01:58;;;;;;;22.67;20.20;;;-0.30;99.90;;;;;;5137827;27;20069;-72
2022/03/08 05:04:23;;;;;;;23.60;20.33;;;-0.30;99.90;;;;;;5134005;27;20110;-72
2022/03/08 05:06:49;;;;;;;24.77;21.17;;;-0.30;99.90;;;;;;5133597;27;20039;-72
2022/03/08 05:09:15;;;;;;;24.57;21.57;;;-0.30;99.90;;;;;;5135081;27;20361;-72
2022/03/08 05:11:40;;;;;;;22.27;19.88;;;-0.30;99.90;;;;;;5136332;27;20051;-79
2022/03/08 05:14:06;;;;;;;24.93;21.60;;;-0.40;99.90;;;;;;5151858;27;20039;-72
2022/03/08 05:16:32;;;;;;;23.13;20.23;;;-0.40;99.90;;;;;;5155553;27;20085;-72
2022/03/08 05:18:58;;;;;;;25.30;21.20;;;-0.30;99.90;;;;;;5158310;27;20112;-72
2022/03/08 05:21:24;;;;;;;24.63;21.00;;;-0.40;99.90;;;;;;5158758;27;20487;-72
2022/03/08 05:23:49;;;;;;;22.87;20.43;;;-0.40;99.90;;;;;;5158282;27;20051;-72
2022/03/08 05:26:15;;;;;;;23.37;20.60;;;-0.40;99.90;;;;;;5158642;27;20475;-72
2022/03/08 05:28:46;;;;;;;24.20;21.23;;;-0.30;99.90;;;;;;5156714;27;20046;-73
2022/03/08 05:31:12;;;;;;;;;;;-0.40;99.90;;;;;;5138428;27;20058;-72
2022/03/08 05:33:38;;;;;;;23.93;21.13;;;-0.40;99.90;;;;;;5137770;27;20437;-72
2022/03/08 05:36:04;;;;;;;24.60;21.17;;;-0.40;99.90;;;;;;5137281;27;20090;-73
2022/03/08 05:38:30;;;;;;;26.77;21.37;;;-0.40;99.90;;;;;;5137734;27;20102;-72
2022/03/08 05:40:56;;;;;;;24.27;21.70;;;-0.40;99.90;;;;;;5149274;27;20046;-72
2022/03/08 05:43:21;;;;;;;23.50;20.70;;;-0.40;99.90;;;;;;5158316;27;20475;-73
2022/03/08 05:45:47;;;;;;;23.90;21.40;;;-0.40;99.90;;;;;;5157842;27;20429;-73
2022/03/08 05:48:13;;;;;;;23.50;21.03;;;-0.40;99.90;;;;;;5157896;27;20078;-73
2022/03/08 05:50:39;;;;;;;25.37;21.33;;;-0.40;99.90;;;;;;5156066;27;20114;-72
2022/03/08 05:53:04;;;;;;;26.17;21.57;;;-0.40;99.90;;;;;;5157688;27;20050;-73
2022/03/08 05:55:30;;;;;;;24.93;21.23;;;-0.40;99.90;;;;;;5158092;27;20133;-72
2022/03/08 05:57:56;;;;;;;25.17;21.73;;;-0.40;99.90;;;;;;5157481;27;20421;-72
2022/03/08 06:00:22;;;;;;;23.97;21.17;;;-0.30;99.90;;;;;;5157294;27;20046;-72
2022/03/08 06:02:47;;;;;;;24.70;21.83;;;-0.30;99.90;;;;;;5156497;27;20113;-72
2022/03/08 06:05:13;;;;;;;23.33;20.93;;;-0.30;99.90;;;;;;5157994;27;20053;-72
2022/03/08 06:07:39;;;;;;;23.83;21.30;;;-0.20;99.90;;;;;;5157971;27;20050;-72
2022/03/08 06:10:08;;;;;;;25.70;21.47;;;-0.30;99.90;;;;;;5157094;27;20039;-72
2022/03/08 06:12:34;;;;;;;23.87;21.37;;;-0.30;99.90;;;;;;5141075;27;20047;-72
2022/03/08 06:15:00;;;;;;;23.90;21.33;;;-0.40;99.90;;;;;;5136532;27;20047;-72
2022/03/08 06:17:26;;;;;;;24.75;21.88;;;-0.40;99.90;;;;;;5118749;27;20066;-72
2022/03/08 06:19:52;;;;;;;25.77;21.47;;;-0.40;99.90;;;;;;5136170;27;20484;-72
2022/03/08 06:22:17;;;;;;;24.47;21.93;;;-0.40;99.90;;;;;;5136967;27;20047;-73
2022/03/08 06:24:43;;;;;;;28.97;22.47;;;-0.40;99.90;;;;;;5136789;27;20046;-72
2022/03/08 06:27:09;;;;;;;26.17;22.70;;;-0.40;99.90;;;;;;5136239;27;20108;-72
2022/03/08 06:29:34;;;;;;;28.10;21.77;;;-0.40;99.90;;;;;;5136657;27;20069;-72
2022/03/08 06:32:00;;;;;;;24.53;21.90;;;-0.40;99.90;;;;;;5138021;27;20039;-72
2022/03/08 06:34:26;;;;;;;23.87;21.37;;;-0.40;99.90;;;;;;5155586;27;20121;-73
2022/03/08 06:36:51;;;;;;;24.07;21.47;;;-0.40;99.90;;;;;;5156838;27;20066;-72
2022/03/08 06:39:17;;;;;;;24.57;21.47;;;-0.30;99.90;;;;;;5156784;27;20058;-72
2022/03/08 06:41:43;;;;;;;25.13;21.73;;;-0.30;99.90;;;;;;5157143;27;20065;-72
2022/03/08 06:44:10;;;;;;;24.23;21.50;;;-0.20;99.90;;;;;;5154520;27;20625;-72
2022/03/08 06:46:37;;;;;;;24.30;21.53;;;-0.20;99.90;;;;;;5157084;27;20380;-72
2022/03/08 06:49:03;;;;;;;25.47;22.53;;;-0.10;99.90;;;;;;5156575;27;20054;-72
2022/03/08 06:51:28;;;;;;;24.83;21.97;;;0.00;99.90;;;;;;5156906;27;20046;-72
2022/03/08 06:53:54;;;;;;;25.55;22.85;;;0.00;99.90;;;;;;5116019;27;20043;-73
2022/03/08 06:56:20;;;;;;;24.50;21.40;;;0.10;99.90;;;;;;5136100;27;20043;-72
2022/03/08 06:58:46;;;;;;;26.05;22.50;;;0.20;99.90;;;;;;5155780;27;20117;-73
2022/03/08 07:01:11;;;;;;;28.47;23.50;;;0.20;99.90;;;;;;5149705;27;20051;-72
2022/03/08 07:03:37;;;;;;;25.57;21.47;;;0.30;99.90;;;;;;5156403;27;20050;-72
2022/03/08 07:06:05;;;;;;;24.85;21.42;;;0.70;99.90;;;;;;5156222;27;20144;-73
2022/03/08 07:08:31;;;;;;;22.52;20.13;;;1.60;99.90;;;;;;5156687;27;20049;-72
2022/03/08 07:10:56;;;;;;;24.65;20.10;;;2.50;99.90;;;;;;5156143;27;20126;-73
2022/03/08 07:13:22;;;;;;;22.50;20.10;;;3.00;99.90;;;;;;5156288;27;20038;-73
2022/03/08 07:15:48;;;;;;;24.02;20.50;;;3.10;99.90;;;;;;5137824;27;20137;-72
2022/03/08 07:18:14;;;;;;;21.75;19.45;;;3.10;99.90;;;;;;5155949;27;20045;-72
2022/03/08 07:20:40;;;;;;;21.20;19.00;;;3.10;99.90;;;;;;5160137;27;20042;-72
2022/03/08 07:23:05;;;;;;;21.73;19.50;;;3.20;99.90;;;;;;5155877;27;20548;-72
2022/03/08 07:25:31;;;;;;;21.35;19.13;;;3.30;99.90;;;;;;5156369;27;20463;-72
2022/03/08 07:27:57;;;;;;;21.77;19.35;;;3.40;99.90;;;;;;5155785;27;20046;-72
2022/03/08 07:30:22;;;;;;;21.65;19.35;;;3.30;99.90;;;;;;5156083;27;20039;-72
2022/03/08 07:32:50;;;;;;;20.20;18.17;;;3.40;99.90;;;;;;5156265;27;20397;-72
2022/03/08 07:35:16;;;;;;;20.15;17.92;;;3.60;99.90;;;;;;5155581;27;20046;-72
2022/03/08 07:37:42;;;;;;;21.00;18.77;;;3.70;99.90;;;;;;5156558;27;20054;-72
2022/03/08 07:40:08;;;;;;;20.63;18.23;;;3.80;99.90;;;;;;5155182;27;20125;-72
2022/03/08 07:42:34;;;;;;;20.20;17.67;;;3.80;99.90;;;;;;5155070;27;20042;-72
2022/03/08 07:45:00;;;;;;;20.20;17.92;;;3.80;99.90;;;;;;5135819;27;20042;-72
2022/03/08 07:47:26;;;;;;;20.42;18.33;;;3.80;99.90;;;;;;5160826;27;20039;-73
2022/03/08 07:49:51;;;;;;;19.92;17.83;;;3.80;99.90;;;;;;5152850;27;20117;-72
2022/03/08 07:52:17;;;;;;;20.52;18.42;;;3.60;99.90;;;;;;5152487;27;20087;-73
2022/03/08 07:54:43;;;;;;;20.75;18.50;;;3.50;99.90;;;;;;5152030;27;20126;-72
2022/03/08 07:57:08;;;;;;;20.33;18.23;;;3.30;99.90;;;;;;5152491;27;20544;-72
2022/03/08 07:59:34;;;;;;;20.58;18.38;;;3.20;99.90;;;;;;5160949;27;20081;-72
2022/03/08 08:02:00;;;;;;;20.77;17.80;;;3.20;99.90;;;;;;5165170;27;20486;-72
2022/03/08 08:04:26;;;;;;;22.35;19.98;;;3.10;99.90;;;;;;5160736;27;20050;-73
2022/03/08 08:06:51;;;;;;;21.77;19.55;;;3.20;99.90;;;;;;5153983;27;20050;-72
2022/03/08 08:09:17;;;;;;;22.02;19.60;;;3.10;99.90;;;;;;5150644;27;20043;-72
2022/03/08 08:11:43;;;;;;;23.55;21.08;;;3.20;99.90;;;;;;5151459;27;20034;-72
2022/03/08 08:14:09;;;;;;;22.65;20.38;;;3.20;99.90;;;;;;5151635;27;20085;-72
2022/03/08 08:16:35;;;;;;;21.55;19.35;;;3.30;99.90;;;;;;5151888;27;20477;-72
2022/03/08 08:19:00;;;;;;;19.42;17.48;;;3.50;99.90;;;;;;5151695;27;20043;-72
2022/03/08 08:21:26;;;;;;;18.73;16.92;;;3.70;99.90;;;;;;5152637;27;20480;-72
2022/03/08 08:23:52;;;;;;;18.83;16.83;;;4.00;99.90;;;;;;5152033;27;20050;-72
2022/03/08 08:26:18;;;;;;;18.33;16.50;;;4.40;99.90;;;;;;5162952;27;20034;-73
2022/03/08 08:28:43;;;;;;;17.67;15.88;;;4.80;99.90;;;;;;5173049;27;20038;-73
2022/03/08 08:31:09;;;;;;;17.48;15.77;;;5.00;99.90;;;;;;5168357;27;20249;-73
2022/03/08 08:33:36;;;;;;;18.15;16.45;;;5.30;98.50;;;;;;5152179;27;20039;-72
2022/03/08 08:36:03;;;;;;;17.08;15.38;;;5.60;97.10;;;;;;5151616;27;20041;-73
2022/03/08 08:38:29;;;;;;;17.60;15.82;;;5.50;95.70;;;;;;5151484;27;20051;-73
2022/03/08 08:40:55;;;;;;;17.70;15.88;;;5.50;95.30;;;;;;5155597;27;20549;-73
2022/03/08 08:43:20;;;;;;;16.92;15.23;;;5.40;94.70;;;;;;5151181;27;20038;-73
2022/03/08 08:45:51;;;;;;;17.52;15.82;;;5.30;94.50;;;;;;5156526;27;20038;-73
2022/03/08 08:48:18;;;;;;;18.52;16.65;;;5.40;94.90;;;;;;5154254;27;20053;-73
2022/03/08 08:50:44;;;;;;;17.77;16.08;;;5.50;95.70;;;;;;5170708;27;20038;-73
2022/03/08 08:53:09;;;;;;;17.23;15.55;;;5.70;95.00;;;;;;5152030;27;20204;-73
2022/03/08 08:55:37;;;;;;;17.27;15.68;;;5.90;93.80;;;;;;5152208;27;20045;-73
2022/03/08 08:58:06;;;;;;;16.50;14.90;;;6.00;92.30;;;;;;5151391;27;20487;-73
2022/03/08 09:00:33;;;;;;;15.93;14.43;;;6.40;91.70;;;;;;5151600;27;20041;-73
2022/03/08 09:02:59;;;;;;;16.42;14.15;;;6.90;90.40;;;;;;5146005;27;20490;-73
2022/03/08 09:05:25;;;;;;;15.60;14.20;;;7.40;86.10;;;;;;5166291;27;20042;-73
2022/03/08 09:07:50;;;;;;;16.50;14.75;;;7.90;85.00;;;;;;5168735;27;20050;-73
2022/03/08 09:10:19;;;;;;;14.85;13.45;;;8.20;80.30;;;;;;5171609;27;20110;-73
2022/03/08 09:12:49;;;;;;;15.80;14.10;;;8.50;76.80;;;;;;5172283;27;20491;-73
2022/03/08 09:15:16;;;;;;;15.45;14.00;;;8.80;74.80;;;;;;5171959;27;20050;-73
2022/03/08 09:17:42;;;;;;;14.25;12.85;;;8.90;72.60;;;;;;5170194;27;20049;-73
2022/03/08 09:20:08;;;;;;;14.43;13.02;;;8.90;71.00;;;;;;5170917;27;20038;-73
2022/03/08 09:22:34;;;;;;;14.25;12.85;;;9.00;71.30;;;;;;5172065;27;20046;-73
2022/03/08 09:24:59;;;;;;;13.75;12.55;;;9.20;71.10;;;;;;5172500;27;20391;-73
2022/03/08 09:27:25;;;;;;;13.82;12.43;;;9.40;69.30;;;;;;5170163;27;20038;-74
2022/03/08 09:29:51;;;;;;;12.60;11.40;;;9.60;70.40;;;;;;5171780;27;20042;-73
2022/03/08 09:32:17;;;;;;;13.00;11.80;;;9.90;68.40;;;;;;5169480;27;20030;-74
2022/03/08 09:34:43;;;;;;;11.80;10.60;;;9.90;66.80;;;;;;5172531;27;20466;-73
2022/03/08 09:37:09;;;;;;;11.32;10.15;;;9.90;63.20;;;;;;5169771;27;20569;-73
2022/03/08 09:39:35;;;;;;;12.40;11.20;;;10.00;62.90;;;;;;5172593;27;20141;-74
2022/03/08 09:42:02;;;;;;;11.55;10.55;;;10.00;61.40;;;;;;5166761;27;20130;-73
2022/03/08 09:44:29;;;;;;;10.95;9.90;;;10.00;61.30;;;;;;5150458;27;20039;-73
2022/03/08 09:46:55;;;;;;;11.77;10.57;;;10.00;61.80;;;;;;5151599;27;20125;-74
2022/03/08 09:49:21;;;;;;;10.68;9.68;;;10.10;62.20;;;;;;5151061;27;20100;-73
2022/03/08 09:51:46;;;;;;;11.50;10.40;;;10.20;61.30;;;;;;5152073;27;20057;-73
2022/03/08 09:54:12;;;;;;;10.15;9.25;;;10.40;59.80;;;;;;5154884;27;20047;-74
2022/03/08 09:56:38;;;;;;;10.00;9.00;;;10.30;58.00;;;;;;5151439;27;20042;-73
2022/03/08 09:59:04;;;;;;;10.27;9.27;;;10.50;58.80;;;;;;5133902;27;20457;-73
2022/03/08 10:01:31;;;;;;;9.98;9.05;;;10.50;59.00;;;;;;5150438;27;20564;-74
2022/03/08 10:03:56;;;;;;;8.75;7.95;;;10.60;57.80;;;;;;5154617;27;20479;-73
2022/03/08 10:06:22;;;;;;;8.57;7.75;;;10.60;56.80;;;;;;5165439;27;20039;-73
2022/03/08 10:08:48;;;;;;;8.55;7.85;;;10.60;56.40;;;;;;5156131;27;20103;-73
2022/03/08 10:11:14;;;;;;;8.15;7.45;;;10.60;54.90;;;;;;5165082;27;20048;-74
2022/03/08 10:13:48;;;;;;;9.00;8.10;;;10.60;55.20;;;;;;5175845;27;20478;-73
2022/03/08 10:16:15;;;;;;;8.52;7.78;;;10.60;56.10;;;;;;5175187;27;20042;-73
2022/03/08 10:18:47;;;;;;;8.35;7.55;;;10.60;55.60;;;;;;5162805;27;20043;-73
2022/03/08 10:21:33;;;;;;;8.75;7.95;;;10.40;54.60;;;;;;5166804;27;20487;-73
2022/03/08 10:24:01;;;;;;;7.88;7.13;;;10.30;55.70;;;;;;5178499;27;20572;-73
2022/03/08 10:26:27;;;;;;;7.22;6.63;;;10.10;55.00;;;;;;5173220;27;20078;-73
2022/03/08 10:28:54;;;;;;;7.65;7.05;;;10.10;53.90;;;;;;5171114;27;20065;-73
2022/03/08 10:31:20;;;;;;;7.85;7.00;;;9.90;55.30;;;;;;5173835;27;20380;-73
2022/03/08 10:33:48;;;;;;;8.30;7.50;;;9.90;54.70;;;;;;5175670;27;20379;-72
2022/03/08 10:36:21;;;;;;;8.15;7.28;;;9.90;54.70;;;;;;5174831;27;20042;-73
2022/03/08 10:39:11;;;;;;;8.18;7.38;;;9.90;55.70;;;;;;5170751;27;20097;-73
2022/03/08 10:41:48;;;;;;;7.93;7.22;;;9.90;55.40;;;;;;5134753;27;20118;-73
2022/03/08 10:44:15;;;;;;;7.95;7.25;;;10.00;56.70;;;;;;5152797;27;20403;-73
2022/03/08 10:46:41;;;;;;;7.78;6.97;;;9.90;55.20;;;;;;5153253;27;20048;-73
2022/03/08 10:49:12;;;;;;;8.15;7.35;;;10.00;56.90;;;;;;5153132;27;20042;-73
2022/03/08 10:51:38;;;;;;;6.95;6.35;;;9.90;56.30;;;;;;5152309;27;20039;-73
2022/03/08 10:54:11;;;;;;;6.05;5.45;;;9.80;55.30;;;;;;5153022;27;20558;-73
2022/03/08 10:56:43;;;;;;;6.05;5.55;;;9.80;54.20;;;;;;5151340;27;20095;-73
2022/03/08 10:59:10;;;;;;;5.82;5.30;;;9.80;53.90;;;;;;5153453;27;20092;-73
2022/03/08 11:01:36;;;;;;;5.35;4.85;;;9.70;53.40;;;;;;5153687;27;20050;-73
2022/03/08 11:04:01;;;;;;;6.32;5.72;;;9.70;53.00;;;;;;5155741;27;20038;-73
2022/03/08 11:06:27;;;;;;;4.90;4.50;;;9.60;54.50;;;;;;5153707;27;20360;-73
2022/03/08 11:08:53;;;;;;;5.70;5.20;;;9.40;54.50;;;;;;5153924;27;20050;-73
2022/03/08 11:11:20;;;;;;;5.47;4.97;;;9.30;56.00;;;;;;5153602;27;20125;-73
2022/03/08 11:13:54;;;;;;;5.57;5.07;;;9.40;55.70;;;;;;5152081;27;20422;-74
2022/03/08 11:16:20;;;;;;;5.80;5.30;;;9.40;56.00;;;;;;5151108;27;20042;-73
2022/03/08 11:18:50;;;;;;;5.80;5.20;;;9.50;55.50;;;;;;5154604;27;20039;-73
2022/03/08 11:21:19;;;;;;;5.68;5.18;;;9.50;54.80;;;;;;5152687;27;20042;-74
2022/03/08 11:23:45;;;;;;;5.72;5.22;;;9.50;54.90;;;;;;5153726;27;20039;-73
2022/03/08 11:26:17;;;;;;;5.82;5.25;;;9.40;56.10;;;;;;5153217;27;20047;-74
2022/03/08 11:28:48;;;;;;;7.22;5.78;;;9.40;56.60;;;;;;5164944;27;20045;-73
2022/03/08 11:31:17;;;;;;;6.10;5.50;;;9.40;55.80;;;;;;5174153;27;20060;-73
2022/03/08 11:34:10;;;;;;;6.20;5.70;;;9.40;55.40;;;;;;5173851;27;20486;-73
2022/03/08 11:36:38;;;;;;;5.88;5.38;;;9.50;55.50;;;;;;5173395;27;20106;-73
2022/03/08 11:39:15;;;;;;;5.60;5.10;;;9.60;56.50;;;;;;5172508;27;20068;-73
2022/03/08 11:41:43;;;;;;;5.72;5.22;;;9.60;56.70;;;;;;5173634;27;20054;-73
2022/03/08 11:44:20;;;;;;;5.50;5.00;;;9.70;56.70;;;;;;5154285;27;20047;-74
2022/03/08 11:47:09;;;;;;;6.38;5.75;;;9.80;53.80;;;;;;5153278;27;20049;-72
2022/03/08 11:49:37;;;;;;;6.30;5.70;;;9.90;53.70;;;;;;5143902;27;20074;-73
2022/03/08 11:52:16;;;;;;;5.60;5.13;;;9.80;54.90;;;;;;5174146;27;20451;-73
2022/03/08 11:54:50;;;;;;;5.43;5.00;;;9.90;55.10;;;;;;5173538;27;20258;-73
2022/03/08 11:57:49;;;;;;;6.18;5.57;;;9.90;54.50;;;;;;5173386;27;20372;-73
2022/03/08 12:00:15;;;;;;;6.30;5.70;;;10.00;53.80;;;;;;5171401;27;20170;-73
2022/03/08 12:02:48;;;;;;;5.90;5.32;;;10.00;53.80;;;;;;5173386;27;20140;-73
2022/03/08 12:05:43;;;;;;;5.93;5.32;;;10.00;53.80;;;;;;5173067;27;20053;-73
2022/03/08 12:08:27;;;;;;;6.03;5.43;;;10.00;56.30;;;;;;5173263;27;20042;-73
2022/03/08 12:11:01;;;;;;;6.90;5.93;;;10.10;53.60;;;;;;5173214;27;20038;-73
2022/03/08 12:13:28;;;;;;;6.03;5.53;;;10.20;53.30;;;;;;5172887;27;20043;-73
2022/03/08 12:16:09;;;;;;;5.57;5.07;;;10.20;54.00;;;;;;5153130;27;20078;-74
2022/03/08 12:18:36;;;;;;;;;;;10.20;53.70;;;;;;5173371;27;20046;-73
2022/03/08 12:21:17;;;;;;;5.50;5.00;;;10.20;52.30;;;;;;5172816;27;19918;-73
2022/03/08 12:23:51;;;;;;;;;;;10.20;52.00;;;;;;5173426;27;20490;-73
2022/03/08 12:26:24;;;;;;;5.45;5.00;;;10.20;52.90;;;;;;5165982;27;20338;-74
2022/03/08 12:29:08;;;;;;;5.40;4.90;;;10.10;54.30;;;;;;5152274;27;20046;-73
2022/03/08 12:32:01;;;;;;;5.32;4.82;;;10.20;53.30;;;;;;5152004;27;20046;-73
2022/03/08 12:34:35;;;;;;;5.45;4.95;;;10.10;52.80;;;;;;5151607;27;20043;-74
2022/03/08 12:37:24;;;;;;;4.47;4.07;;;10.20;51.10;;;;;;5153091;27;20079;-73
2022/03/08 12:40:08;;;;;;;4.90;4.50;;;10.20;51.80;;;;;;5151442;27;20050;-73